sensor_id;sensor_type;location;lat;lon;timestamp;pressure;altitude;pressure_sealevel;temperature;humidity
29197;BME280;62796;42.654;23.316;2023-02-11T00:01:09;96198.06;;;1.65;39.01
29197;BME280;62796;42.654;23.316;2023-02-11T00:03:35;96196.50;;;1.68;38.92
29197;BME280;62796;42.654;23.316;2023-02-11T00:06:03;96200.38;;;1.71;38.79
29197;BME280;62796;42.654;23.316;2023-02-11T00:08:29;96201.19;;;1.71;38.74
29197;BME280;62796;42.654;23.316;2023-02-11T00:10:56;96188.31;;;1.72;38.17
29197;BME280;62796;42.654;23.316;2023-02-11T00:13:22;96191.06;;;1.79;38.17
29197;BME280;62796;42.654;23.316;2023-02-11T00:15:48;96181.66;;;1.80;38.48
29197;BME280;62796;42.654;23.316;2023-02-11T00:18:14;96198.84;;;1.77;38.76
29197;BME280;62796;42.654;23.316;2023-02-11T00:20:40;96201.19;;;1.78;38.07
29197;BME280;62796;42.654;23.316;2023-02-11T00:23:06;96194.97;;;1.85;38.07
29197;BME280;62796;42.654;23.316;2023-02-11T00:25:31;96199.63;;;1.77;38.78
29197;BME280;62796;42.654;23.316;2023-02-11T00:27:57;96191.81;;;1.72;38.72
29197;BME280;62796;42.654;23.316;2023-02-11T00:30:23;96196.50;;;1.68;38.18
29197;BME280;62796;42.654;23.316;2023-02-11T00:32:48;96198.06;;;1.69;38.61
29197;BME280;62796;42.654;23.316;2023-02-11T00:35:14;96198.44;;;1.64;38.34
29197;BME280;62796;42.654;23.316;2023-02-11T00:37:39;96187.88;;;1.48;38.44
29197;BME280;62796;42.654;23.316;2023-02-11T00:40:05;96187.91;;;1.52;39.01
29197;BME280;62796;42.654;23.316;2023-02-11T00:42:31;96197.22;;;1.44;38.83
29197;BME280;62796;42.654;23.316;2023-02-11T00:44:56;96167.53;;;1.21;39.08
29197;BME280;62796;42.654;23.316;2023-02-11T00:47:22;96188.25;;;1.36;38.86
29197;BME280;62796;42.654;23.316;2023-02-11T00:49:47;96181.22;;;1.35;38.54
29197;BME280;62796;42.654;23.316;2023-02-11T00:52:13;96180.78;;;1.26;38.44
29197;BME280;62796;42.654;23.316;2023-02-11T00:54:38;96181.59;;;1.34;38.22
29197;BME280;62796;42.654;23.316;2023-02-11T00:57:04;96175.75;;;1.35;38.18
29197;BME280;62796;42.654;23.316;2023-02-11T00:59:29;96185.09;;;1.38;38.90
29197;BME280;62796;42.654;23.316;2023-02-11T01:01:55;96181.63;;;1.44;38.08
29197;BME280;62796;42.654;23.316;2023-02-11T01:04:20;96180.47;;;1.49;38.39
29197;BME280;62796;42.654;23.316;2023-02-11T01:06:46;96159.38;;;1.39;38.09
29197;BME280;62796;42.654;23.316;2023-02-11T01:09:11;96173.84;;;1.53;38.50
29197;BME280;62796;42.654;23.316;2023-02-11T01:11:36;96178.53;;;1.56;37.61
29197;BME280;62796;42.654;23.316;2023-02-11T01:14:02;96148.84;;;1.34;37.78
29197;BME280;62796;42.654;23.316;2023-02-11T01:16:27;96178.91;;;1.58;37.80
29197;BME280;62796;42.654;23.316;2023-02-11T01:18:53;96172.66;;;1.51;37.94
29197;BME280;62796;42.654;23.316;2023-02-11T01:21:18;96162.91;;;1.39;38.12
29197;BME280;62796;42.654;23.316;2023-02-11T01:23:44;96138.66;;;1.13;38.25
29197;BME280;62796;42.654;23.316;2023-02-11T01:26:09;96166.78;;;1.38;38.62
29197;BME280;62796;42.654;23.316;2023-02-11T01:28:34;96167.59;;;1.42;38.06
29197;BME280;62796;42.654;23.316;2023-02-11T01:31:00;96180.81;;;1.33;38.42
29197;BME280;62796;42.654;23.316;2023-02-11T01:33:26;96177.69;;;1.31;37.88
29197;BME280;62796;42.654;23.316;2023-02-11T01:35:52;96168.31;;;1.22;38.21
29197;BME280;62796;42.654;23.316;2023-02-11T01:38:21;96158.16;;;1.26;38.34
29197;BME280;62796;42.654;23.316;2023-02-11T01:41:07;96126.91;;;0.95;38.78
29197;BME280;62796;42.654;23.316;2023-02-11T01:43:36;96160.50;;;1.20;38.30
29197;BME280;62796;42.654;23.316;2023-02-11T01:46:29;96165.19;;;1.23;38.42
29197;BME280;62796;42.654;23.316;2023-02-11T01:49:06;96166.75;;;1.21;38.60
29197;BME280;62796;42.654;23.316;2023-02-11T01:51:45;96160.91;;;1.19;38.57
29197;BME280;62796;42.654;23.316;2023-02-11T01:54:14;96158.19;;;1.22;38.74
29197;BME280;62796;42.654;23.316;2023-02-11T01:56:59;96147.19;;;1.08;39.16
29197;BME280;62796;42.654;23.316;2023-02-11T01:59:53;96160.50;;;1.13;38.77
29197;BME280;62796;42.654;23.316;2023-02-11T02:02:24;96157.34;;;1.11;38.61
29197;BME280;62796;42.654;23.316;2023-02-11T02:04:54;96156.16;;;1.05;38.92
29197;BME280;62796;42.654;23.316;2023-02-11T02:07:44;96156.19;;;1.12;38.68
29197;BME280;62796;42.654;23.316;2023-02-11T02:10:18;96160.47;;;1.09;38.44
29197;BME280;62796;42.654;23.316;2023-02-11T02:12:45;96160.47;;;1.09;38.86
29197;BME280;62796;42.654;23.316;2023-02-11T02:15:22;96162.03;;;1.10;38.73
29197;BME280;62796;42.654;23.316;2023-02-11T02:31:25;96159.97;;;0.83;38.70
29197;BME280;62796;42.654;23.316;2023-02-11T02:34:14;96154.13;;;0.84;39.34
29197;BME280;62796;42.654;23.316;2023-02-11T02:36:54;96148.59;;;0.67;38.94
29197;BME280;62796;42.654;23.316;2023-02-11T02:39:26;96153.28;;;0.63;38.83
29197;BME280;62796;42.654;23.316;2023-02-11T02:41:55;96146.19;;;0.54;39.31
29197;BME280;62796;42.654;23.316;2023-02-11T02:44:21;96108.63;;;0.20;38.90
29197;BME280;62796;42.654;23.316;2023-02-11T02:46:47;96144.97;;;0.45;39.32
29197;BME280;62796;42.654;23.316;2023-02-11T02:49:14;96144.19;;;0.41;38.88
29197;BME280;62796;42.654;23.316;2023-02-11T03:00:36;96163.03;;;0.09;39.59
29197;BME280;62796;42.654;23.316;2023-02-11T03:06:12;96115.75;;;-0.20;39.76
29197;BME280;62796;42.654;23.316;2023-02-11T03:08:54;96160.72;;;0.08;39.60
29197;BME280;62796;42.654;23.316;2023-02-11T03:11:22;96165.44;;;0.14;39.24
29197;BME280;62796;42.654;23.316;2023-02-11T03:13:49;96166.22;;;0.18;39.96
29197;BME280;62796;42.654;23.316;2023-02-11T03:16:19;96148.34;;;0.24;39.20
29197;BME280;62796;42.654;23.316;2023-02-11T03:18:50;96153.88;;;0.35;39.11
29197;BME280;62796;42.654;23.316;2023-02-11T03:21:17;96164.81;;;0.42;38.99
29197;BME280;62796;42.654;23.316;2023-02-11T03:23:53;96162.50;;;0.44;39.13
29197;BME280;62796;42.654;23.316;2023-02-11T03:26:28;96162.94;;;0.53;38.55
29197;BME280;62796;42.654;23.316;2023-02-11T03:29:01;96161.78;;;0.57;39.31
29197;BME280;62796;42.654;23.316;2023-02-11T03:31:55;96157.91;;;0.59;38.55
29197;BME280;62796;42.654;23.316;2023-02-11T03:34:37;96154.00;;;0.52;38.88
29197;BME280;62796;42.654;23.316;2023-02-11T03:37:10;96145.41;;;0.54;38.49
29197;BME280;62796;42.654;23.316;2023-02-11T03:39:41;96146.97;;;0.51;39.09
29197;BME280;62796;42.654;23.316;2023-02-11T03:42:09;96158.28;;;0.53;38.58
29197;BME280;62796;42.654;23.316;2023-02-11T03:44:39;96143.91;;;0.57;38.51
29197;BME280;62796;42.654;23.316;2023-02-11T03:47:09;96153.28;;;0.63;38.39
29197;BME280;62796;42.654;23.316;2023-02-11T03:49:37;96161.78;;;0.57;38.75
29197;BME280;62796;42.654;23.316;2023-02-11T03:52:05;96151.66;;;0.54;38.72
29197;BME280;62796;42.654;23.316;2023-02-11T03:54:32;96147.81;;;0.59;38.60
29197;BME280;62796;42.654;23.316;2023-02-11T03:57:00;96148.59;;;0.60;38.29
29197;BME280;62796;42.654;23.316;2023-02-11T03:59:26;96145.44;;;0.57;38.25
29197;BME280;62796;42.654;23.316;2023-02-11T04:01:52;96156.38;;;0.65;38.58
29197;BME280;62796;42.654;23.316;2023-02-11T04:04:17;96147.81;;;0.63;38.37
29197;BME280;62796;42.654;23.316;2023-02-11T04:06:43;96151.69;;;0.58;38.61
29197;BME280;62796;42.654;23.316;2023-02-11T04:09:10;96150.84;;;0.47;38.63
29197;BME280;62796;42.654;23.316;2023-02-11T04:11:35;96148.84;;;0.40;38.64
29197;BME280;62796;42.654;23.316;2023-02-11T04:14:01;96154.69;;;0.35;38.91
29197;BME280;62796;42.654;23.316;2023-02-11T04:16:26;96117.16;;;0.11;38.91
29197;BME280;62796;42.654;23.316;2023-02-11T04:18:52;96147.69;;;0.38;38.93
29197;BME280;62796;42.654;23.316;2023-02-11T04:21:17;96128.50;;;0.20;39.11
29197;BME280;62796;42.654;23.316;2023-02-11T04:23:43;96150.78;;;0.33;39.20
29197;BME280;62796;42.654;23.316;2023-02-11T04:26:08;96148.47;;;0.38;38.86
29197;BME280;62796;42.654;23.316;2023-02-11T04:28:34;96151.59;;;0.40;38.73
29197;BME280;62796;42.654;23.316;2023-02-11T04:31:00;96150.44;;;0.48;38.76
29197;BME280;62796;42.654;23.316;2023-02-11T04:33:26;96125.06;;;0.34;38.55
29197;BME280;62796;42.654;23.316;2023-02-11T04:35:51;96147.75;;;0.52;39.32
29197;BME280;62796;42.654;23.316;2023-02-11T04:38:17;96150.88;;;0.57;39.09
29197;BME280;62796;42.654;23.316;2023-02-11T04:40:42;96145.44;;;0.57;38.74
29197;BME280;62796;42.654;23.316;2023-02-11T04:43:08;96136.13;;;0.62;38.55
29197;BME280;62796;42.654;23.316;2023-02-11T04:45:33;96132.59;;;0.58;39.02
29197;BME280;62796;42.654;23.316;2023-02-11T04:48:01;96148.59;;;0.67;38.70
29197;BME280;62796;42.654;23.316;2023-02-11T04:50:27;96117.75;;;0.48;38.77
29197;BME280;62796;42.654;23.316;2023-02-11T04:52:52;96136.94;;;0.70;38.81
29197;BME280;62796;42.654;23.316;2023-02-11T04:55:18;96136.94;;;0.73;38.21
29197;BME280;62796;42.654;23.316;2023-02-11T04:57:43;96121.59;;;0.40;38.23
29197;BME280;62796;42.654;23.316;2023-02-11T05:00:09;96145.84;;;0.60;38.00
29197;BME280;62796;42.654;23.316;2023-02-11T05:02:35;96142.38;;;0.63;37.86
29197;BME280;62796;42.654;23.316;2023-02-11T05:05:00;96135.38;;;0.65;38.02
29197;BME280;62796;42.654;23.316;2023-02-11T05:07:25;96136.16;;;0.66;38.24
29197;BME280;62796;42.654;23.316;2023-02-11T05:09:51;96122.84;;;0.61;38.28
29197;BME280;62796;42.654;23.316;2023-02-11T05:12:16;96128.31;;;0.61;38.08
29197;BME280;62796;42.654;23.316;2023-02-11T05:14:42;96126.00;;;0.63;38.17
29197;BME280;62796;42.654;23.316;2023-02-11T05:17:07;96093.06;;;0.20;38.41
29197;BME280;62796;42.654;23.316;2023-02-11T05:19:33;96132.19;;;0.52;38.63
29197;BME280;62796;42.654;23.316;2023-02-11T05:21:58;96105.63;;;0.42;38.73
29197;BME280;62796;42.654;23.316;2023-02-11T05:24:24;96122.47;;;0.59;38.21
29197;BME280;62796;42.654;23.316;2023-02-11T05:26:49;96127.50;;;0.49;38.77
29197;BME280;62796;42.654;23.316;2023-02-11T05:29:15;96134.91;;;0.52;38.35
29197;BME280;62796;42.654;23.316;2023-02-11T05:31:40;96132.94;;;0.49;38.50
29197;BME280;62796;42.654;23.316;2023-02-11T05:34:05;96126.69;;;0.45;38.42
29197;BME280;62796;42.654;23.316;2023-02-11T05:36:31;96123.22;;;0.52;38.77
29197;BME280;62796;42.654;23.316;2023-02-11T05:38:56;96127.88;;;0.51;38.14
29197;BME280;62796;42.654;23.316;2023-02-11T05:41:22;96122.84;;;0.53;38.73
29197;BME280;62796;42.654;23.316;2023-02-11T05:43:48;96106.41;;;0.39;39.03
29197;BME280;62796;42.654;23.316;2023-02-11T05:46:15;96132.97;;;0.53;38.86
29197;BME280;62796;42.654;23.316;2023-02-11T05:48:41;96127.94;;;0.59;38.29
29197;BME280;62796;42.654;23.316;2023-02-11T05:51:07;96128.72;;;0.63;38.48
29197;BME280;62796;42.654;23.316;2023-02-11T05:53:32;96124.44;;;0.62;38.16
29197;BME280;62796;42.654;23.316;2023-02-11T05:55:57;96126.00;;;0.66;38.63
29197;BME280;62796;42.654;23.316;2023-02-11T05:58:23;96132.25;;;0.67;38.09
29197;BME280;62796;42.654;23.316;2023-02-11T06:00:48;96115.84;;;0.56;38.15
29197;BME280;62796;42.654;23.316;2023-02-11T06:03:14;96140.47;;;0.74;37.96
29197;BME280;62796;42.654;23.316;2023-02-11T06:05:41;96138.91;;;0.76;37.96
29197;BME280;62796;42.654;23.316;2023-02-11T06:08:07;96143.97;;;0.81;38.73
29197;BME280;62796;42.654;23.316;2023-02-11T06:10:33;96144.00;;;0.85;38.57
29197;BME280;62796;42.654;23.316;2023-02-11T06:12:58;96126.06;;;0.77;38.95
29197;BME280;62796;42.654;23.316;2023-02-11T06:15:25;96142.50;;;0.94;38.59
29197;BME280;62796;42.654;23.316;2023-02-11T06:17:51;96145.63;;;1.00;38.62
29197;BME280;62796;42.654;23.316;2023-02-11T06:20:17;96152.63;;;0.94;38.82
29197;BME280;62796;42.654;23.316;2023-02-11T06:22:42;96152.66;;;1.01;38.98
29197;BME280;62796;42.654;23.316;2023-02-11T06:25:08;96156.22;;;1.19;38.72
29197;BME280;62796;42.654;23.316;2023-02-11T06:27:35;96121.09;;;1.14;38.95
29197;BME280;62796;42.654;23.316;2023-02-11T06:30:00;96156.28;;;1.47;38.38
29197;BME280;62796;42.654;23.316;2023-02-11T06:32:27;96145.38;;;1.54;38.47
29197;BME280;62796;42.654;23.316;2023-02-11T06:34:52;96144.97;;;1.74;38.26
29197;BME280;62796;42.654;23.316;2023-02-11T06:37:18;96152.78;;;1.86;37.36
29197;BME280;62796;42.654;23.316;2023-02-11T06:39:44;96123.13;;;1.91;37.44
29197;BME280;62796;42.654;23.316;2023-02-11T06:42:09;96123.09;;;2.16;37.15
29197;BME280;62796;42.654;23.316;2023-02-11T06:44:35;96139.44;;;2.55;36.46
29197;BME280;62796;42.654;23.316;2023-02-11T06:47:00;96155.31;;;2.99;35.71
29197;BME280;62796;42.654;23.316;2023-02-11T06:49:25;96155.22;;;3.23;35.11
29197;BME280;62796;42.654;23.316;2023-02-11T06:51:51;96132.06;;;3.35;34.46
29197;BME280;62796;42.654;23.316;2023-02-11T06:54:16;96154.41;;;3.88;33.82
29197;BME280;62796;42.654;23.316;2023-02-11T06:56:42;96151.91;;;4.12;33.43
29197;BME280;62796;42.654;23.316;2023-02-11T06:59:07;96155.59;;;4.39;32.68
29197;BME280;62796;42.654;23.316;2023-02-11T07:01:33;96164.63;;;4.73;32.52
29197;BME280;62796;42.654;23.316;2023-02-11T07:03:58;96153.72;;;5.03;31.54
29197;BME280;62796;42.654;23.316;2023-02-11T07:06:25;96138.63;;;5.19;31.32
29197;BME280;62796;42.654;23.316;2023-02-11T07:08:53;96152.63;;;5.58;30.29
29197;BME280;62796;42.654;23.316;2023-02-11T07:11:24;96151.56;;;5.75;29.87
29197;BME280;62796;42.654;23.316;2023-02-11T07:13:51;96154.38;;;5.98;29.47
29197;BME280;62796;42.654;23.316;2023-02-11T07:16:17;96145.81;;;6.20;28.93
29197;BME280;62796;42.654;23.316;2023-02-11T07:18:45;96148.56;;;6.43;28.68
29197;BME280;62796;42.654;23.316;2023-02-11T07:21:12;96143.72;;;6.70;28.01
29197;BME280;62796;42.654;23.316;2023-02-11T07:23:39;96143.47;;;6.84;27.88
29197;BME280;62796;42.654;23.316;2023-02-11T07:26:10;96144.69;;;7.03;27.41
29197;BME280;62796;42.654;23.316;2023-02-11T07:28:36;96096.16;;;6.89;27.16
29197;BME280;62796;42.654;23.316;2023-02-11T07:33:32;96109.88;;;7.12;27.53
29197;BME280;62796;42.654;23.316;2023-02-11T07:36:00;96116.91;;;7.33;27.06
29197;BME280;62796;42.654;23.316;2023-02-11T07:38:26;96104.44;;;7.45;26.82
29197;BME280;62796;42.654;23.316;2023-02-11T07:40:52;96116.38;;;7.74;26.45
29197;BME280;62796;42.654;23.316;2023-02-11T07:43:17;96120.44;;;7.86;26.15
29197;BME280;62796;42.654;23.316;2023-02-11T07:45:43;96115.13;;;7.95;25.38
29197;BME280;62796;42.654;23.316;2023-02-11T07:48:08;96109.84;;;7.84;25.26
29197;BME280;62796;42.654;23.316;2023-02-11T07:50:33;96117.63;;;8.05;25.04
29197;BME280;62796;42.654;23.316;2023-02-11T07:52:59;96114.31;;;8.30;24.80
29197;BME280;62796;42.654;23.316;2023-02-11T07:55:24;96114.25;;;8.46;24.93
29197;BME280;62796;42.654;23.316;2023-02-11T07:57:50;96110.47;;;8.56;24.91
29197;BME280;62796;42.654;23.316;2023-02-11T08:00:15;96109.84;;;8.49;24.59
29197;BME280;62796;42.654;23.316;2023-02-11T08:02:41;96118.31;;;8.58;24.67
29197;BME280;62796;42.654;23.316;2023-02-11T08:05:07;96093.81;;;8.60;24.26
29197;BME280;62796;42.654;23.316;2023-02-11T08:07:32;96078.41;;;8.75;24.07
29197;BME280;62796;42.654;23.316;2023-02-11T08:09:58;96066.34;;;8.81;23.94
29197;BME280;62796;42.654;23.316;2023-02-11T08:12:23;96103.84;;;9.24;23.64
29197;BME280;62796;42.654;23.316;2023-02-11T08:14:48;96097.66;;;9.32;23.28
29197;BME280;62796;42.654;23.316;2023-02-11T08:17:14;96102.16;;;9.55;23.14
29197;BME280;62796;42.654;23.316;2023-02-11T08:19:39;96095.28;;;9.72;23.03
29197;BME280;62796;42.654;23.316;2023-02-11T08:22:04;96097.28;;;9.72;22.81
29197;BME280;62796;42.654;23.316;2023-02-11T08:24:30;96097.81;;;9.92;22.87
29197;BME280;62796;42.654;23.316;2023-02-11T08:26:55;96066.63;;;9.79;22.50
29197;BME280;62796;42.654;23.316;2023-02-11T08:29:21;96103.81;;;10.03;22.10
29197;BME280;62796;42.654;23.316;2023-02-11T08:31:47;96106.69;;;10.12;22.39
29197;BME280;62796;42.654;23.316;2023-02-11T08:34:13;96105.25;;;10.33;22.15
29197;BME280;62796;42.654;23.316;2023-02-11T08:36:40;96105.56;;;10.47;22.06
29197;BME280;62796;42.654;23.316;2023-02-11T08:39:11;96103.09;;;10.49;21.78
29197;BME280;62796;42.654;23.316;2023-02-11T08:41:37;96104.66;;;10.50;21.89
29197;BME280;62796;42.654;23.316;2023-02-11T08:44:03;96103.47;;;10.73;21.50
29197;BME280;62796;42.654;23.316;2023-02-11T08:46:28;96103.66;;;10.79;21.96
29197;BME280;62796;42.654;23.316;2023-02-11T08:48:54;96084.38;;;10.75;21.61
29197;BME280;62796;42.654;23.316;2023-02-11T08:51:22;96096.72;;;10.74;22.14
29197;BME280;62796;42.654;23.316;2023-02-11T08:53:48;96082.00;;;10.65;22.05
29197;BME280;62796;42.654;23.316;2023-02-11T08:56:14;96081.34;;;10.61;22.29
29197;BME280;62796;42.654;23.316;2023-02-11T08:58:41;96110.78;;;10.80;22.69
29197;BME280;62796;42.654;23.316;2023-02-11T09:01:19;96113.50;;;10.92;22.26
29197;BME280;62796;42.654;23.316;2023-02-11T09:03:45;96110.41;;;11.12;22.18
29197;BME280;62796;42.654;23.316;2023-02-11T09:06:11;96081.41;;;11.04;22.79
29197;BME280;62796;42.654;23.316;2023-02-11T09:08:40;96106.78;;;11.24;22.25
29197;BME280;62796;42.654;23.316;2023-02-11T09:11:06;96096.00;;;11.26;22.58
29197;BME280;62796;42.654;23.316;2023-02-11T09:13:32;96092.34;;;11.29;21.89
29197;BME280;62796;42.654;23.316;2023-02-11T09:16:00;96087.41;;;11.55;21.61
29197;BME280;62796;42.654;23.316;2023-02-11T09:18:26;96090.63;;;11.75;21.36
29197;BME280;62796;42.654;23.316;2023-02-11T09:20:52;96081.44;;;11.65;21.01
29197;BME280;62796;42.654;23.316;2023-02-11T09:23:18;96084.28;;;11.75;20.80
29197;BME280;62796;42.654;23.316;2023-02-11T09:25:43;96081.38;;;11.78;20.55
29197;BME280;62796;42.654;23.316;2023-02-11T09:28:09;96085.56;;;11.83;20.44
29197;BME280;62796;42.654;23.316;2023-02-11T09:30:36;96077.84;;;11.78;20.47
29197;BME280;62796;42.654;23.316;2023-02-11T09:33:02;96084.72;;;12.04;20.54
29197;BME280;62796;42.654;23.316;2023-02-11T09:35:28;96079.84;;;12.26;20.31
29197;BME280;62796;42.654;23.316;2023-02-11T09:37:54;96065.00;;;12.11;20.17
29197;BME280;62796;42.654;23.316;2023-02-11T09:40:20;96073.06;;;12.18;19.76
29197;BME280;62796;42.654;23.316;2023-02-11T09:42:56;96076.41;;;12.13;20.26
29197;BME280;62796;42.654;23.316;2023-02-11T09:45:28;96056.72;;;12.29;19.64
29197;BME280;62796;42.654;23.316;2023-02-11T09:50:25;96066.81;;;11.96;20.38
29197;BME280;62796;42.654;23.316;2023-02-11T09:52:57;96055.59;;;12.17;20.11
29197;BME280;62796;42.654;23.316;2023-02-11T09:55:35;96063.03;;;12.30;20.11
29197;BME280;62796;42.654;23.316;2023-02-11T09:58:10;96044.38;;;12.57;20.00
29197;BME280;62796;42.654;23.316;2023-02-11T10:00:42;96040.09;;;12.74;19.23
29197;BME280;62796;42.654;23.316;2023-02-11T10:03:26;96037.16;;;12.60;19.43
29197;BME280;62796;42.654;23.316;2023-02-11T10:16:42;96010.72;;;12.46;19.00
29197;BME280;62796;42.654;23.316;2023-02-11T10:22:09;95998.06;;;12.63;18.41
29197;BME280;62796;42.654;23.316;2023-02-11T10:24:36;95994.97;;;12.61;18.96
29197;BME280;62796;42.654;23.316;2023-02-11T10:27:15;95972.09;;;12.75;18.60
29197;BME280;62796;42.654;23.316;2023-02-11T10:29:58;95976.41;;;12.95;18.74
29197;BME280;62796;42.654;23.316;2023-02-11T10:35:30;95955.84;;;13.19;16.61
29197;BME280;62796;42.654;23.316;2023-02-11T10:37:58;95945.94;;;13.60;16.87
29197;BME280;62796;42.654;23.316;2023-02-11T10:40:26;95945.59;;;13.35;17.10
29197;BME280;62796;42.654;23.316;2023-02-11T10:42:55;95938.56;;;13.48;16.83
29197;BME280;62796;42.654;23.316;2023-02-11T10:45:35;95930.69;;;13.79;16.82
29197;BME280;62796;42.654;23.316;2023-02-11T10:48:03;95911.53;;;13.72;16.42
29197;BME280;62796;42.654;23.316;2023-02-11T10:50:32;95923.31;;;14.15;16.65
29197;BME280;62796;42.654;23.316;2023-02-11T10:53:16;95913.22;;;14.41;16.37
29197;BME280;62796;42.654;23.316;2023-02-11T10:55:53;95910.56;;;14.61;16.72
29197;BME280;62796;42.654;23.316;2023-02-11T10:58:22;95905.22;;;14.72;15.39
29197;BME280;62796;42.654;23.316;2023-02-11T11:00:53;95908.75;;;14.58;15.35
29197;BME280;62796;42.654;23.316;2023-02-11T11:03:28;95901.81;;;14.54;15.60
29197;BME280;62796;42.654;23.316;2023-02-11T11:06:07;95902.03;;;14.79;15.68
29197;BME280;62796;42.654;23.316;2023-02-11T11:08:46;95897.31;;;15.00;15.32
29197;BME280;62796;42.654;23.316;2023-02-11T11:11:20;95894.22;;;15.13;15.70
29197;BME280;62796;42.654;23.316;2023-02-11T11:18:48;95892.31;;;15.19;15.35
29197;BME280;62796;42.654;23.316;2023-02-11T11:21:23;95855.44;;;15.15;15.75
29197;BME280;62796;42.654;23.316;2023-02-11T11:23:58;95882.03;;;15.45;15.95
29197;BME280;62796;42.654;23.316;2023-02-11T11:26:26;95883.78;;;15.57;15.39
29197;BME280;62796;42.654;23.316;2023-02-11T11:28:59;95889.16;;;15.61;15.40
29197;BME280;62796;42.654;23.316;2023-02-11T11:33:53;95850.00;;;15.75;15.54
29197;BME280;62796;42.654;23.316;2023-02-11T11:36:23;95876.00;;;16.22;14.70
29197;BME280;62796;42.654;23.316;2023-02-11T11:38:55;95879.28;;;16.20;14.67
29197;BME280;62796;42.654;23.316;2023-02-11T11:41:26;95873.13;;;15.76;15.20
29197;BME280;62796;42.654;23.316;2023-02-11T11:46:34;95869.25;;;16.34;15.00
29197;BME280;62796;42.654;23.316;2023-02-11T11:49:16;95864.63;;;16.51;14.64
29197;BME280;62796;42.654;23.316;2023-02-11T11:51:48;95858.44;;;15.61;15.03
29197;BME280;62796;42.654;23.316;2023-02-11T11:54:17;95865.53;;;15.27;15.74
29197;BME280;62796;42.654;23.316;2023-02-11T11:56:50;95860.25;;;15.64;15.48
29197;BME280;62796;42.654;23.316;2023-02-11T11:59:17;95849.31;;;16.00;15.26
29197;BME280;62796;42.654;23.316;2023-02-11T12:02:10;95841.22;;;16.02;15.00
29197;BME280;62796;42.654;23.316;2023-02-11T12:07:31;95833.38;;;15.86;15.01
29197;BME280;62796;42.654;23.316;2023-02-11T12:23:35;95809.03;;;16.33;14.10
29197;BME280;62796;42.654;23.316;2023-02-11T12:26:39;95794.16;;;16.47;13.97
29197;BME280;62796;42.654;23.316;2023-02-11T12:37:13;95770.31;;;16.77;13.39
29197;BME280;62796;42.654;23.316;2023-02-11T12:55:59;95741.94;;;16.95;13.33
29197;BME280;62796;42.654;23.316;2023-02-11T12:58:30;95736.00;;;17.19;13.32
29197;BME280;62796;42.654;23.316;2023-02-11T13:01:03;95755.97;;;17.38;13.29
29197;BME280;62796;42.654;23.316;2023-02-11T13:03:39;95747.16;;;17.56;12.96
29197;BME280;62796;42.654;23.316;2023-02-11T13:06:10;95750.84;;;17.84;12.76
29197;BME280;62796;42.654;23.316;2023-02-11T13:08:50;95746.56;;;18.05;12.81
29197;BME280;62796;42.654;23.316;2023-02-11T13:11:22;95752.44;;;18.13;12.62
29197;BME280;62796;42.654;23.316;2023-02-11T13:24:42;95740.31;;;19.05;11.62
29197;BME280;62796;42.654;23.316;2023-02-11T13:27:44;95735.44;;;19.16;11.78
29197;BME280;62796;42.654;23.316;2023-02-11T13:35:34;95738.75;;;19.15;11.28
29197;BME280;62796;42.654;23.316;2023-02-11T13:38:02;95729.84;;;18.77;11.64
29197;BME280;62796;42.654;23.316;2023-02-11T13:40:36;95732.91;;;18.85;11.69
29197;BME280;62796;42.654;23.316;2023-02-11T13:43:05;95724.25;;;18.83;11.73
29197;BME280;62796;42.654;23.316;2023-02-11T13:48:16;95721.16;;;19.14;11.17
29197;BME280;62796;42.654;23.316;2023-02-11T13:50:47;95716.75;;;19.30;11.26
29197;BME280;62796;42.654;23.316;2023-02-11T13:53:14;95692.28;;;19.03;11.11
29197;BME280;62796;42.654;23.316;2023-02-11T13:55:43;95712.66;;;19.31;10.99
29197;BME280;62796;42.654;23.316;2023-02-11T14:11:53;95686.72;;;18.64;11.28
29197;BME280;62796;42.654;23.316;2023-02-11T14:14:29;95689.25;;;18.95;11.44
29197;BME280;62796;42.654;23.316;2023-02-11T14:22:02;95656.09;;;18.44;11.35
29197;BME280;62796;42.654;23.316;2023-02-11T14:27:05;95686.72;;;18.36;11.89
29197;BME280;62796;42.654;23.316;2023-02-11T14:32:38;95690.06;;;18.68;11.67
29197;BME280;62796;42.654;23.316;2023-02-11T14:40:38;95685.94;;;18.47;12.03
29197;BME280;62796;42.654;23.316;2023-02-11T14:43:12;95675.50;;;18.86;11.91
29197;BME280;62796;42.654;23.316;2023-02-11T14:45:39;95685.56;;;19.45;11.67
29197;BME280;62796;42.654;23.316;2023-02-11T14:48:11;95684.09;;;19.21;11.79
29197;BME280;62796;42.654;23.316;2023-02-11T14:50:43;95684.28;;;19.46;11.68
29197;BME280;62796;42.654;23.316;2023-02-11T14:53:15;95685.78;;;19.58;11.36
29197;BME280;62796;42.654;23.316;2023-02-11T14:55:45;95688.50;;;18.95;11.86
29197;BME280;62796;42.654;23.316;2023-02-11T14:58:20;95687.22;;;18.79;11.93
29197;BME280;62796;42.654;23.316;2023-02-11T15:03:30;95680.84;;;18.06;12.59
29197;BME280;62796;42.654;23.316;2023-02-11T15:05:59;95679.66;;;17.06;13.30
29197;BME280;62796;42.654;23.316;2023-02-11T15:08:26;95677.88;;;16.03;14.08
29197;BME280;62796;42.654;23.316;2023-02-11T15:10:53;95690.59;;;15.18;15.31
29197;BME280;62796;42.654;23.316;2023-02-11T15:13:22;95678.31;;;14.26;15.99
29197;BME280;62796;42.654;23.316;2023-02-11T15:15:54;95673.13;;;13.60;16.64
29197;BME280;62796;42.654;23.316;2023-02-11T15:18:26;95671.97;;;13.14;17.33
29197;BME280;62796;42.654;23.316;2023-02-11T15:20:53;95640.78;;;12.30;18.15
29197;BME280;62796;42.654;23.316;2023-02-11T15:23:24;95666.88;;;11.63;19.34
29197;BME280;62796;42.654;23.316;2023-02-11T15:25:51;95627.63;;;11.19;19.80
29197;BME280;62796;42.654;23.316;2023-02-11T15:28:32;95657.97;;;11.04;20.30
29197;BME280;62796;42.654;23.316;2023-02-11T15:33:29;95646.91;;;10.37;20.82
29197;BME280;62796;42.654;23.316;2023-02-11T15:35:57;95647.06;;;9.94;21.64